Time;durP1;ratioP1;P1;durP2;ratioP2;P2;SDS_P1;SDS_P2;PMS_P1;PMS_P2;Temp;Humidity;BMP_temperature;BMP_pressure;BME280_temperature;BME280_humidity;BME280_pressure;Samples;Min_cycle;Max_cycle;Signal;HPM_P1;HPM_P2
2023/10/21 00:00:38;;;;;;;0.10;0.10;;;15.00;99.90;;;;;;5035205;28;20027;-72
2023/10/21 00:03:04;;;;;;;0.35;0.35;;;15.00;99.90;;;;;;5034778;28;20428;-71
2023/10/21 00:05:30;;;;;;;0.20;0.20;;;15.10;99.90;;;;;;5034944;28;20069;-71
2023/10/21 00:07:56;;;;;;;0.20;0.13;;;15.10;99.90;;;;;;5035081;28;20025;-71
2023/10/21 00:10:21;;;;;;;0.30;0.30;;;15.10;99.90;;;;;;5034194;28;20568;-71
2023/10/21 00:12:48;;;;;;;0.00;0.00;;;15.10;99.90;;;;;;5034797;28;20109;-71
2023/10/21 00:15:14;;;;;;;0.38;0.35;;;15.00;99.90;;;;;;5035000;28;20048;-71
2023/10/21 00:17:40;;;;;;;0.00;0.00;;;15.00;99.90;;;;;;5034470;28;20466;-72
2023/10/21 00:20:06;;;;;;;0.13;0.13;;;14.90;99.90;;;;;;5035034;28;20017;-73
2023/10/21 00:22:36;;;;;;;0.10;0.10;;;15.00;99.90;;;;;;5034650;28;20536;-72
2023/10/21 00:25:04;;;;;;;0.00;0.00;;;15.00;99.90;;;;;;5033334;28;20551;-72
2023/10/21 00:27:30;;;;;;;0.22;0.22;;;15.10;99.90;;;;;;5034809;28;20034;-72
2023/10/21 00:29:55;;;;;;;8.15;0.55;;;15.00;99.90;;;;;;5033377;28;20020;-71
2023/10/21 00:32:21;;;;;;;0.13;0.13;;;15.10;99.90;;;;;;5032916;28;20465;-71
2023/10/21 00:34:49;;;;;;;0.00;0.00;;;15.00;99.90;;;;;;5033209;28;20073;-73
2023/10/21 00:37:15;;;;;;;0.63;0.63;;;15.10;99.90;;;;;;5033168;28;20112;-73
2023/10/21 00:39:42;;;;;;;0.30;0.30;;;15.10;99.90;;;;;;5034582;28;20455;-71
2023/10/21 00:42:08;;;;;;;0.00;0.00;;;15.10;99.90;;;;;;5033194;28;20105;-72
2023/10/21 00:44:34;;;;;;;0.00;0.00;;;15.20;99.90;;;;;;5034399;28;20045;-71
2023/10/21 00:47:00;;;;;;;0.10;0.10;;;15.10;99.90;;;;;;5033939;28;20047;-72
2023/10/21 00:49:31;;;;;;;0.10;0.10;;;15.10;99.90;;;;;;5017294;28;20021;-71
2023/10/21 00:51:58;;;;;;;4.85;0.52;;;15.00;99.90;;;;;;5032933;28;20052;-71
2023/10/21 00:54:27;;;;;;;0.43;0.20;;;15.10;99.90;;;;;;5034208;28;20022;-73
2023/10/21 00:56:56;;;;;;;0.47;0.47;;;15.00;99.90;;;;;;5032910;28;20063;-71
2023/10/21 00:59:25;;;;;;;0.77;0.77;;;15.00;99.90;;;;;;5034276;28;20375;-72
2023/10/21 01:01:51;;;;;;;0.10;0.10;;;15.00;99.90;;;;;;5032236;28;20061;-70
2023/10/21 01:04:18;;;;;;;0.73;0.65;;;15.10;99.90;;;;;;5032714;28;20064;-71
2023/10/21 01:06:44;;;;;;;1.35;0.65;;;15.10;99.90;;;;;;5034078;28;20029;-71
2023/10/21 01:09:15;;;;;;;0.22;0.22;;;15.10;99.90;;;;;;5033654;28;20540;-73
2023/10/21 01:11:42;;;;;;;0.28;0.28;;;15.20;99.90;;;;;;5032506;28;20405;-71
2023/10/21 01:14:09;;;;;;;0.20;0.13;;;15.10;99.90;;;;;;5015890;28;20028;-71
2023/10/21 01:16:35;;;;;;;0.05;0.05;;;15.20;99.90;;;;;;5032440;28;20117;-71
2023/10/21 01:19:01;;;;;;;0.28;0.28;;;15.20;99.90;;;;;;5032237;28;20394;-72
2023/10/21 01:21:27;;;;;;;0.10;0.10;;;15.20;99.90;;;;;;5033441;28;20026;-71
2023/10/21 01:23:52;;;;;;;0.30;0.30;;;15.30;99.90;;;;;;5032292;28;20108;-71
2023/10/21 01:26:18;;;;;;;0.40;0.40;;;15.40;99.90;;;;;;5032233;28;20094;-71
2023/10/21 01:28:45;;;;;;;3.33;0.93;;;15.30;99.90;;;;;;5033606;28;20048;-72
2023/10/21 01:31:10;;;;;;;1.63;0.68;;;15.30;99.90;;;;;;5032965;28;20029;-71
2023/10/21 01:33:36;;;;;;;0.08;0.08;;;15.20;99.90;;;;;;5033538;28;20179;-71
2023/10/21 01:36:02;;;;;;;0.03;0.03;;;15.20;99.90;;;;;;5031752;28;20029;-71
2023/10/21 01:38:28;;;;;;;1.02;0.93;;;15.20;99.90;;;;;;5030754;28;20393;-71
2023/10/21 01:40:54;;;;;;;0.20;0.20;;;15.30;99.90;;;;;;5032259;28;20490;-71
2023/10/21 01:43:19;;;;;;;0.60;0.60;;;15.30;99.90;;;;;;5032875;28;20121;-71
2023/10/21 01:45:45;;;;;;;0.65;0.40;;;15.30;99.90;;;;;;5031827;28;20033;-71
2023/10/21 01:48:11;;;;;;;0.00;0.00;;;15.30;99.90;;;;;;5024214;28;20034;-71
2023/10/21 01:50:37;;;;;;;0.00;0.00;;;15.30;99.90;;;;;;5033354;28;20393;-71
2023/10/21 01:53:03;;;;;;;0.10;0.10;;;15.30;99.90;;;;;;5031844;28;20029;-71
2023/10/21 01:55:29;;;;;;;0.73;0.73;;;15.30;99.90;;;;;;5031918;28;20478;-71
2023/10/21 01:57:55;;;;;;;0.00;0.00;;;15.20;99.90;;;;;;5031695;28;20030;-71
2023/10/21 02:00:21;;;;;;;0.20;0.20;;;15.30;99.90;;;;;;5031461;28;20083;-71
2023/10/21 02:02:55;;;;;;;1.45;1.15;;;15.30;99.90;;;;;;5031849;28;20071;-71
2023/10/21 02:05:23;;;;;;;0.60;0.60;;;15.30;99.90;;;;;;5031509;28;20508;-71
2023/10/21 02:07:50;;;;;;;0.85;0.85;;;15.20;99.90;;;;;;5015630;28;20014;-71
2023/10/21 02:10:18;;;;;;;1.17;0.63;;;15.10;99.90;;;;;;5032650;28;20514;-71
2023/10/21 02:12:44;;;;;;;0.40;0.40;;;15.10;99.90;;;;;;5032676;28;20026;-74
2023/10/21 02:15:16;;;;;;;1.00;0.90;;;15.10;99.90;;;;;;5032423;28;20470;-71
2023/10/21 02:17:44;;;;;;;0.60;0.50;;;15.10;99.90;;;;;;5031479;28;20048;-71
2023/10/21 02:20:14;;;;;;;0.28;0.28;;;15.10;99.90;;;;;;5031552;28;20524;-71
2023/10/21 02:22:40;;;;;;;0.10;0.10;;;15.10;99.90;;;;;;5032803;28;20394;-71
2023/10/21 02:25:14;;;;;;;1.48;0.52;;;15.20;99.90;;;;;;5014829;28;20033;-74
2023/10/21 02:27:40;;;;;;;0.08;0.08;;;15.10;99.90;;;;;;5031306;28;20398;-71
2023/10/21 02:30:08;;;;;;;0.85;0.60;;;15.10;99.90;;;;;;5032654;28;20018;-71
2023/10/21 02:32:35;;;;;;;0.15;0.15;;;15.10;99.90;;;;;;5033639;28;20033;-71
2023/10/21 02:35:01;;;;;;;0.93;0.93;;;15.10;99.90;;;;;;5037776;28;20029;-71
2023/10/21 02:37:26;;;;;;;3.03;2.50;;;15.10;99.90;;;;;;5029861;28;20025;-71
2023/10/21 02:39:52;;;;;;;0.20;0.20;;;15.00;99.90;;;;;;5038022;28;20035;-71
2023/10/21 02:42:18;;;;;;;0.90;0.70;;;15.10;99.90;;;;;;5037375;28;20029;-71
2023/10/21 02:44:44;;;;;;;0.20;0.20;;;15.00;99.90;;;;;;5037660;28;20017;-71
2023/10/21 02:47:10;;;;;;;0.60;0.50;;;15.10;99.90;;;;;;5037792;28;20084;-71
2023/10/21 02:49:36;;;;;;;0.00;0.00;;;15.00;99.90;;;;;;5034801;28;20037;-72
2023/10/21 02:52:02;;;;;;;4.57;1.02;;;15.10;99.90;;;;;;5037744;28;20108;-72
2023/10/21 02:54:28;;;;;;;3.17;1.88;;;15.10;99.90;;;;;;5037632;28;20026;-72
2023/10/21 02:56:54;;;;;;;0.15;0.15;;;15.10;99.90;;;;;;5038839;28;20028;-73
2023/10/21 02:59:20;;;;;;;3.00;0.77;;;14.90;99.90;;;;;;5037496;28;20029;-73
2023/10/21 03:01:48;;;;;;;1.60;0.63;;;14.90;99.90;;;;;;5038839;28;20374;-73
2023/10/21 03:04:15;;;;;;;0.20;0.20;;;14.90;99.90;;;;;;5037635;28;20045;-73
2023/10/21 03:06:40;;;;;;;0.40;0.35;;;14.90;99.90;;;;;;5038890;28;20024;-72
2023/10/21 03:09:07;;;;;;;0.00;0.00;;;14.90;99.90;;;;;;5038962;28;20021;-73
2023/10/21 03:11:32;;;;;;;1.98;0.65;;;15.00;99.90;;;;;;5038270;28;20079;-74
2023/10/21 03:13:58;;;;;;;0.10;0.10;;;15.10;99.90;;;;;;5038806;28;20017;-72
2023/10/21 03:16:24;;;;;;;1.13;0.45;;;15.10;99.90;;;;;;5037474;28;20068;-73
2023/10/21 03:18:51;;;;;;;2.85;1.55;;;15.10;99.90;;;;;;5037390;28;20104;-72
2023/10/21 03:21:17;;;;;;;0.28;0.28;;;15.10;99.90;;;;;;5037375;28;20022;-73
2023/10/21 03:23:43;;;;;;;9.02;1.25;;;15.20;99.90;;;;;;5038703;28;20037;-73
2023/10/21 03:26:09;;;;;;;1.48;0.88;;;15.20;99.90;;;;;;5020512;28;20064;-73
2023/10/21 03:28:38;;;;;;;13.73;3.10;;;15.20;99.90;;;;;;5038805;28;20057;-72
2023/10/21 03:31:05;;;;;;;0.93;0.70;;;15.20;99.90;;;;;;5038535;28;20026;-74
2023/10/21 03:33:31;;;;;;;1.05;0.90;;;15.30;99.90;;;;;;5037560;28;20025;-72
2023/10/21 03:35:59;;;;;;;13.77;2.65;;;15.30;99.90;;;;;;5037185;28;20025;-73
2023/10/21 03:38:25;;;;;;;2.83;1.10;;;15.20;99.90;;;;;;5037578;28;20458;-72
2023/10/21 03:40:59;;;;;;;13.27;7.60;;;15.20;99.90;;;;;;5020681;28;20025;-71
2023/10/21 03:43:26;;;;;;;9.40;0.40;;;15.20;99.90;;;;;;5038194;28;20036;-72
2023/10/21 03:45:53;;;;;;;10.52;1.55;;;15.20;99.90;;;;;;5033921;28;20037;-72
2023/10/21 03:48:20;;;;;;;0.93;0.80;;;15.30;99.90;;;;;;5032099;28;20029;-72
2023/10/21 03:50:47;;;;;;;1.45;0.75;;;15.30;99.90;;;;;;5035448;28;20033;-72
2023/10/21 03:53:14;;;;;;;11.45;2.15;;;15.20;99.90;;;;;;5035434;28;20018;-72
2023/10/21 03:55:41;;;;;;;1.80;1.58;;;15.20;99.90;;;;;;5035022;28;20044;-72
2023/10/21 03:58:07;;;;;;;0.70;0.30;;;15.30;99.90;;;;;;5034041;28;20044;-73
2023/10/21 04:00:34;;;;;;;2.15;1.95;;;15.20;99.90;;;;;;5035131;28;20474;-72
2023/10/21 04:03:00;;;;;;;0.40;0.40;;;15.20;99.90;;;;;;5035230;28;20471;-72
2023/10/21 04:05:26;;;;;;;0.20;0.20;;;15.30;99.90;;;;;;5035040;28;20072;-72
2023/10/21 04:07:51;;;;;;;1.70;1.35;;;15.30;99.90;;;;;;5033505;28;20029;-72
2023/10/21 04:10:17;;;;;;;0.90;0.75;;;15.20;99.90;;;;;;5034849;28;20021;-72
2023/10/21 04:12:43;;;;;;;0.38;0.35;;;15.20;99.90;;;;;;5035060;28;20060;-72
2023/10/21 04:15:09;;;;;;;3.95;0.50;;;15.10;99.90;;;;;;5034731;28;20108;-72
2023/10/21 04:17:39;;;;;;;0.45;0.38;;;15.10;99.90;;;;;;5033593;28;20024;-72
2023/10/21 04:20:06;;;;;;;1.55;0.20;;;15.10;99.90;;;;;;5018062;28;20498;-72
2023/10/21 04:22:31;;;;;;;0.80;0.80;;;15.20;99.90;;;;;;5014480;28;20065;-72
2023/10/21 04:24:57;;;;;;;0.00;0.00;;;15.20;99.90;;;;;;5013123;28;20073;-72
2023/10/21 04:27:24;;;;;;;1.15;0.75;;;15.20;99.90;;;;;;4995837;28;20057;-72
2023/10/21 04:29:49;;;;;;;0.20;0.20;;;15.20;99.90;;;;;;5010081;28;20038;-72
2023/10/21 04:32:15;;;;;;;0.20;0.20;;;15.30;99.90;;;;;;5014629;28;20576;-72
2023/10/21 04:34:41;;;;;;;1.85;0.20;;;15.20;99.90;;;;;;5013534;28;20113;-72
2023/10/21 04:37:07;;;;;;;3.70;1.10;;;15.30;99.90;;;;;;5014492;28;20498;-72
2023/10/21 04:39:33;;;;;;;2.83;0.68;;;15.30;99.90;;;;;;5014491;28;20030;-72
2023/10/21 04:41:59;;;;;;;0.25;0.25;;;15.40;99.90;;;;;;5014413;28;20426;-72
2023/10/21 04:44:24;;;;;;;0.10;0.10;;;15.40;99.90;;;;;;4999747;28;20040;-72
2023/10/21 04:46:50;;;;;;;0.30;0.30;;;15.40;99.90;;;;;;5034520;28;20393;-72
2023/10/21 04:49:16;;;;;;;0.20;0.20;;;15.30;99.90;;;;;;5030736;28;20545;-72
2023/10/21 04:51:42;;;;;;;0.40;0.32;;;15.30;99.90;;;;;;5032834;28;20077;-72
2023/10/21 04:54:08;;;;;;;1.05;0.82;;;15.30;99.90;;;;;;5016375;28;20060;-72
2023/10/21 04:56:34;;;;;;;5.10;2.55;;;15.30;99.90;;;;;;5015871;28;20029;-72
2023/10/21 04:59:00;;;;;;;0.80;0.55;;;15.30;99.90;;;;;;5034179;28;20033;-72
2023/10/21 05:01:25;;;;;;;6.25;0.90;;;15.30;99.90;;;;;;5032751;28;20079;-72
2023/10/21 05:03:51;;;;;;;2.47;0.45;;;15.40;99.90;;;;;;5033615;28;20029;-72
2023/10/21 05:06:17;;;;;;;0.22;0.22;;;15.40;99.90;;;;;;5034009;28;20136;-72
2023/10/21 05:08:43;;;;;;;16.73;2.28;;;15.30;99.90;;;;;;5033547;28;20029;-72
2023/10/21 05:11:09;;;;;;;0.20;0.17;;;15.50;99.90;;;;;;5033976;28;20104;-72
2023/10/21 05:13:36;;;;;;;5.13;0.93;;;15.40;99.90;;;;;;5033584;28;20105;-72
2023/10/21 05:16:01;;;;;;;5.78;1.88;;;15.40;99.90;;;;;;5033754;28;20108;-72
2023/10/21 05:18:27;;;;;;;0.20;0.20;;;15.30;99.90;;;;;;5033544;28;20032;-72
2023/10/21 05:20:53;;;;;;;6.93;0.43;;;15.30;99.90;;;;;;5033920;28;20029;-72
2023/10/21 05:23:19;;;;;;;0.75;0.75;;;15.30;99.90;;;;;;5033197;28;20021;-72
2023/10/21 05:25:45;;;;;;;0.47;0.47;;;15.30;99.90;;;;;;5033772;28;20413;-72
2023/10/21 05:28:10;;;;;;;0.50;0.25;;;15.40;99.90;;;;;;5032277;28;20052;-72
2023/10/21 05:30:37;;;;;;;0.60;0.60;;;15.40;99.90;;;;;;5033497;28;20041;-72
2023/10/21 05:33:04;;;;;;;1.45;1.38;;;15.30;99.90;;;;;;5033299;28;20504;-73
2023/10/21 05:35:30;;;;;;;2.45;0.45;;;15.40;99.90;;;;;;5032090;28;20041;-73
2023/10/21 05:37:56;;;;;;;3.80;1.17;;;15.30;99.90;;;;;;5033408;28;20033;-73
2023/10/21 05:40:22;;;;;;;0.73;0.73;;;15.30;99.90;;;;;;5032121;28;20025;-72
2023/10/21 05:42:48;;;;;;;13.07;2.67;;;15.10;99.90;;;;;;5033348;28;20581;-73
2023/10/21 05:45:13;;;;;;;0.75;0.75;;;15.10;99.90;;;;;;5033185;28;20486;-72
2023/10/21 05:47:39;;;;;;;0.47;0.40;;;15.10;99.90;;;;;;5029436;28;20111;-71
2023/10/21 05:50:06;;;;;;;0.50;0.50;;;15.00;99.90;;;;;;5033118;28;20029;-74
2023/10/21 05:52:32;;;;;;;2.05;1.40;;;15.00;99.90;;;;;;5032949;28;20021;-72
2023/10/21 05:54:57;;;;;;;0.13;0.13;;;14.90;99.90;;;;;;5033020;28;20116;-73
2023/10/21 05:57:23;;;;;;;0.40;0.40;;;15.00;99.90;;;;;;5033298;28;20075;-73
2023/10/21 05:59:49;;;;;;;1.25;0.30;;;14.90;99.90;;;;;;5032625;28;20025;-72
2023/10/21 06:02:15;;;;;;;0.20;0.20;;;14.80;99.90;;;;;;5033024;28;20034;-72
2023/10/21 06:04:41;;;;;;;0.77;0.40;;;14.70;99.90;;;;;;5032645;28;20025;-73
2023/10/21 06:07:06;;;;;;;0.65;0.38;;;14.80;99.90;;;;;;5032017;28;20041;-72
2023/10/21 06:09:32;;;;;;;0.17;0.17;;;14.90;99.90;;;;;;5027854;28;20025;-73
2023/10/21 06:11:59;;;;;;;0.80;0.40;;;14.90;99.90;;;;;;5005309;28;20021;-72
2023/10/21 06:14:25;;;;;;;0.10;0.10;;;15.00;99.90;;;;;;5033031;28;20021;-72
2023/10/21 06:16:51;;;;;;;0.93;0.38;;;15.00;99.90;;;;;;5031460;28;20489;-72
2023/10/21 06:19:17;;;;;;;1.88;0.30;;;14.90;99.90;;;;;;5033084;28;20044;-72
2023/10/21 06:21:43;;;;;;;0.38;0.38;;;14.90;99.90;;;;;;5027284;28;20026;-72
2023/10/21 06:24:09;;;;;;;0.20;0.20;;;15.00;99.90;;;;;;5020769;28;20057;-71
2023/10/21 06:26:35;;;;;;;1.27;0.63;;;15.00;99.90;;;;;;5015275;28;20041;-72
2023/10/21 06:29:01;;;;;;;0.28;0.28;;;14.90;99.90;;;;;;5010824;28;20026;-71
2023/10/21 06:31:26;;;;;;;4.57;0.65;;;14.90;99.90;;;;;;5010172;28;20043;-71
2023/10/21 06:33:56;;;;;;;1.30;0.40;;;14.80;99.90;;;;;;5010940;28;20120;-71
2023/10/21 06:36:21;;;;;;;0.57;0.22;;;14.80;99.90;;;;;;5011526;28;20032;-71
2023/10/21 06:38:50;;;;;;;0.85;0.30;;;14.70;99.90;;;;;;5011854;28;20026;-72
2023/10/21 06:41:17;;;;;;;0.47;0.30;;;14.60;99.90;;;;;;5011956;28;20042;-71
2023/10/21 06:43:43;;;;;;;0.43;0.25;;;14.70;99.90;;;;;;5011704;28;20034;-71
2023/10/21 06:46:09;;;;;;;0.80;0.38;;;14.60;99.90;;;;;;5020464;28;20033;-72
2023/10/21 06:48:35;;;;;;;0.25;0.25;;;14.40;99.90;;;;;;5024292;28;20029;-72
2023/10/21 06:51:01;;;;;;;1.85;1.40;;;14.30;99.90;;;;;;5026139;28;20032;-72
2023/10/21 06:53:27;;;;;;;0.17;0.17;;;14.30;99.90;;;;;;5025632;28;20053;-71
2023/10/21 06:55:53;;;;;;;0.10;0.10;;;14.20;99.90;;;;;;5015358;28;20118;-71
2023/10/21 06:58:19;;;;;;;0.20;0.17;;;14.20;99.90;;;;;;5023500;28;20490;-72
2023/10/21 07:00:46;;;;;;;0.00;0.00;;;14.30;99.90;;;;;;5025554;28;20032;-71
2023/10/21 07:03:12;;;;;;;0.10;0.10;;;14.20;99.90;;;;;;5028840;28;20101;-71
2023/10/21 07:05:40;;;;;;;0.00;0.00;;;14.20;99.90;;;;;;5023830;28;20041;-72
2023/10/21 07:08:06;;;;;;;1.15;0.55;;;14.20;99.90;;;;;;5017887;28;20479;-72
2023/10/21 07:10:33;;;;;;;0.10;0.10;;;14.30;99.90;;;;;;5024655;28;20072;-71
2023/10/21 07:12:59;;;;;;;0.43;0.20;;;14.20;99.90;;;;;;5024325;28;20037;-72
2023/10/21 07:15:29;;;;;;;0.00;0.00;;;14.30;99.90;;;;;;5024626;28;20025;-71
2023/10/21 07:17:56;;;;;;;0.10;0.10;;;14.20;99.90;;;;;;5011121;28;20433;-72
2023/10/21 07:20:22;;;;;;;4.55;0.30;;;14.10;99.90;;;;;;5015164;28;20037;-71
2023/10/21 07:22:49;;;;;;;0.20;0.20;;;14.10;99.90;;;;;;5015369;28;20413;-72
2023/10/21 07:25:18;;;;;;;0.10;0.10;;;14.10;99.90;;;;;;5015016;28;20030;-71
2023/10/21 07:27:44;;;;;;;0.30;0.17;;;14.20;99.90;;;;;;5015330;28;20118;-71
2023/10/21 07:30:10;;;;;;;1.52;0.30;;;14.20;99.90;;;;;;5014735;28;20045;-72
2023/10/21 07:32:36;;;;;;;0.15;0.15;;;14.20;99.90;;;;;;5015044;28;20030;-71
2023/10/21 07:35:03;;;;;;;0.08;0.08;;;14.20;99.90;;;;;;5015056;28;20034;-71
2023/10/21 07:37:30;;;;;;;0.40;0.40;;;14.10;99.90;;;;;;5005046;28;20479;-71
2023/10/21 07:39:58;;;;;;;0.00;0.00;;;14.00;99.90;;;;;;5015368;28;20129;-72
2023/10/21 07:42:24;;;;;;;7.43;0.50;;;14.00;99.90;;;;;;5015058;28;20036;-71
2023/10/21 07:44:50;;;;;;;0.77;0.20;;;14.10;99.90;;;;;;5019959;28;20021;-71
2023/10/21 07:47:16;;;;;;;0.00;0.00;;;14.00;99.90;;;;;;5022790;28;20041;-71
2023/10/21 07:49:42;;;;;;;0.35;0.20;;;14.00;99.90;;;;;;5026857;28;20363;-71
2023/10/21 07:52:09;;;;;;;2.13;0.40;;;14.00;99.90;;;;;;5025436;28;20041;-73
2023/10/21 07:54:37;;;;;;;0.20;0.20;;;14.00;99.90;;;;;;5021726;28;20021;-74
2023/10/21 07:57:04;;;;;;;1.20;0.43;;;14.00;99.90;;;;;;5021291;28;20030;-73
2023/10/21 07:59:31;;;;;;;1.90;0.13;;;14.00;99.90;;;;;;5031438;28;20029;-73
2023/10/21 08:01:57;;;;;;;1.88;0.68;;;14.00;99.90;;;;;;5031233;28;20394;-74
2023/10/21 08:04:23;;;;;;;0.10;0.10;;;14.10;99.90;;;;;;5032888;28;20048;-74
2023/10/21 08:06:50;;;;;;;0.00;0.00;;;14.00;99.90;;;;;;5020999;28;20025;-73
2023/10/21 08:09:17;;;;;;;1.65;0.10;;;14.00;99.90;;;;;;5020077;28;20030;-75
2023/10/21 08:11:44;;;;;;;1.13;0.30;;;14.10;99.90;;;;;;5021306;28;20017;-74
2023/10/21 08:14:13;;;;;;;0.10;0.10;;;14.10;99.90;;;;;;5032271;28;20037;-74
2023/10/21 08:16:39;;;;;;;0.10;0.10;;;14.00;99.90;;;;;;5020376;28;20088;-74
2023/10/21 08:19:05;;;;;;;0.08;0.08;;;14.10;99.90;;;;;;5020047;28;20066;-74
2023/10/21 08:21:35;;;;;;;7.47;0.43;;;14.10;99.90;;;;;;5022265;28;20041;-73
2023/10/21 08:24:04;;;;;;;1.48;0.40;;;14.20;99.90;;;;;;5023623;28;20536;-74
2023/10/21 08:26:31;;;;;;;1.83;1.27;;;14.20;99.90;;;;;;5027817;28;20033;-74
2023/10/21 08:28:57;;;;;;;0.20;0.15;;;14.20;99.90;;;;;;5017863;28;20021;-74
2023/10/21 08:31:24;;;;;;;0.70;0.38;;;14.20;99.90;;;;;;5019033;28;20057;-73
2023/10/21 08:33:52;;;;;;;2.25;0.40;;;14.20;99.90;;;;;;5026169;28;20021;-73
2023/10/21 08:36:19;;;;;;;0.10;0.10;;;14.20;99.90;;;;;;5030764;28;20025;-76
2023/10/21 08:38:46;;;;;;;4.55;0.55;;;14.30;99.90;;;;;;5032438;28;20089;-75
2023/10/21 08:41:12;;;;;;;0.00;0.00;;;14.20;99.90;;;;;;5018489;28;20022;-74
2023/10/21 08:43:46;;;;;;;2.90;0.25;;;14.20;99.90;;;;;;5021220;28;20041;-74
2023/10/21 08:46:13;;;;;;;1.25;0.52;;;14.20;99.90;;;;;;5023372;28;20408;-73
2023/10/21 08:48:41;;;;;;;0.93;0.65;;;14.30;99.90;;;;;;5027458;28;20095;-73
2023/10/21 08:51:09;;;;;;;0.52;0.28;;;14.40;99.90;;;;;;5024861;28;20029;-73
2023/10/21 08:53:39;;;;;;;1.08;0.52;;;14.30;99.90;;;;;;5026160;28;20033;-74
2023/10/21 08:56:05;;;;;;;1.30;0.45;;;14.30;99.90;;;;;;5018461;28;20030;-73
2023/10/21 08:58:31;;;;;;;0.45;0.20;;;14.30;99.90;;;;;;5024442;28;20082;-73
2023/10/21 09:00:58;;;;;;;1.02;0.90;;;14.30;99.90;;;;;;5025755;28;20026;-73
2023/10/21 09:03:25;;;;;;;0.68;0.30;;;14.20;99.90;;;;;;5033070;28;20079;-73
2023/10/21 09:06:10;;;;;;;0.35;0.32;;;14.30;99.90;;;;;;5024381;28;20115;-73
2023/10/21 09:08:36;;;;;;;2.45;0.47;;;14.30;99.90;;;;;;5015564;28;20044;-73
2023/10/21 09:11:08;;;;;;;9.63;0.35;;;14.40;99.90;;;;;;5023316;28;20034;-72
2023/10/21 09:13:37;;;;;;;;;;;14.60;99.90;;;;;;5014695;28;20029;-72
2023/10/21 09:16:17;;;;;;;3.38;0.57;;;14.60;99.90;;;;;;5021931;28;19998;-72
2023/10/21 09:19:03;;;;;;;0.00;0.00;;;14.50;99.90;;;;;;5020056;28;20489;-72
2023/10/21 09:21:40;;;;;;;5.93;0.77;;;14.50;99.90;;;;;;5021197;28;20037;-72
2023/10/21 09:24:28;;;;;;;2.55;0.88;;;14.40;99.90;;;;;;5021698;28;20029;-72
2023/10/21 09:26:53;;;;;;;0.20;0.20;;;14.40;99.90;;;;;;5026472;28;20518;-73
2023/10/21 09:29:20;;;;;;;7.80;0.52;;;14.50;99.90;;;;;;5016723;28;20228;-72
2023/10/21 09:31:56;;;;;;;0.20;0.20;;;14.60;99.90;;;;;;5019598;28;20095;-72
2023/10/21 09:34:27;;;;;;;0.03;0.03;;;14.70;99.90;;;;;;5027535;28;20540;-72
2023/10/21 09:37:01;;;;;;;0.98;0.30;;;14.70;99.90;;;;;;5028989;28;20025;-72
2023/10/21 09:39:33;;;;;;;0.35;0.25;;;14.60;99.90;;;;;;5026462;28;20079;-72
2023/10/21 09:42:01;;;;;;;1.33;0.40;;;14.60;99.90;;;;;;5018019;28;20034;-73
2023/10/21 09:44:27;;;;;;;3.20;0.20;;;14.70;99.90;;;;;;5024717;28;20041;-72
2023/10/21 09:46:56;;;;;;;4.38;0.65;;;14.80;99.90;;;;;;5022038;28;20029;-72
2023/10/21 09:49:24;;;;;;;0.20;0.20;;;14.60;99.90;;;;;;5024586;28;20022;-72
2023/10/21 09:52:02;;;;;;;7.07;1.58;;;14.60;99.90;;;;;;5029702;28;20264;-72
2023/10/21 09:54:47;;;;;;;3.05;1.10;;;14.70;99.90;;;;;;5019472;28;20025;-71
2023/10/21 09:57:13;;;;;;;4.65;0.50;;;14.60;99.90;;;;;;5009337;28;20037;-72
2023/10/21 09:59:40;;;;;;;1.17;0.73;;;14.80;99.90;;;;;;5023537;28;20030;-72
2023/10/21 10:02:06;;;;;;;1.17;0.43;;;15.20;99.90;;;;;;5029490;28;20033;-72
2023/10/21 10:04:35;;;;;;;0.28;0.28;;;15.20;99.90;;;;;;5031537;28;20048;-72
2023/10/21 10:07:06;;;;;;;0.28;0.28;;;15.30;99.90;;;;;;5017678;28;20091;-72
2023/10/21 10:09:42;;;;;;;0.43;0.40;;;15.30;99.90;;;;;;5019716;28;20100;-72
2023/10/21 10:12:40;;;;;;;4.43;0.60;;;15.30;99.90;;;;;;5011583;28;20134;-72
2023/10/21 10:15:27;;;;;;;5.90;0.82;;;15.20;99.90;;;;;;5026459;28;20034;-72
2023/10/21 10:17:53;;;;;;;2.28;0.90;;;15.10;99.90;;;;;;5015222;28;20026;-72
2023/10/21 10:20:22;;;;;;;2.72;0.55;;;15.20;99.90;;;;;;5022250;28;20151;-72
2023/10/21 10:23:00;;;;;;;2.58;2.15;;;15.20;99.90;;;;;;5024875;28;20159;-72
2023/10/21 10:25:32;;;;;;;1.95;0.63;;;15.20;99.90;;;;;;5017682;28;20433;-72
2023/10/21 10:28:00;;;;;;;1.90;0.60;;;14.90;99.90;;;;;;5020010;28;20022;-72
2023/10/21 10:30:32;;;;;;;3.25;0.90;;;14.90;99.90;;;;;;5019699;28;20018;-72
2023/10/21 10:33:15;;;;;;;3.45;1.20;;;15.00;99.90;;;;;;5020506;28;20095;-72
2023/10/21 10:35:41;;;;;;;1.40;0.60;;;14.90;99.90;;;;;;5028147;28;20030;-73
2023/10/21 10:38:20;;;;;;;6.50;2.60;;;15.00;99.90;;;;;;5031314;28;20090;-72
2023/10/21 10:40:47;;;;;;;4.70;0.63;;;15.00;99.90;;;;;;5018503;28;20065;-72
2023/10/21 10:43:15;;;;;;;16.98;4.65;;;15.10;99.90;;;;;;5013327;28;20069;-72
2023/10/21 10:45:41;;;;;;;3.10;0.93;;;15.40;99.90;;;;;;5020863;28;20052;-71
2023/10/21 10:48:07;;;;;;;0.25;0.25;;;15.50;99.90;;;;;;5025169;28;20025;-72
2023/10/21 10:50:38;;;;;;;7.97;1.30;;;15.70;99.90;;;;;;5028025;28;20539;-72
2023/10/21 10:53:14;;;;;;;0.38;0.35;;;15.60;99.90;;;;;;5027332;28;20076;-72
2023/10/21 10:55:53;;;;;;;1.70;0.55;;;15.90;99.90;;;;;;5019086;28;20040;-72
2023/10/21 10:58:21;;;;;;;4.03;0.60;;;16.40;99.90;;;;;;5027928;28;20026;-72
2023/10/21 11:00:47;;;;;;;5.75;1.75;;;16.20;99.90;;;;;;5029450;28;20026;-71
2023/10/21 11:03:23;;;;;;;3.95;2.10;;;16.10;99.90;;;;;;5032058;28;20052;-73
2023/10/21 11:05:51;;;;;;;4.55;1.50;;;16.50;99.90;;;;;;5024803;28;20046;-73
2023/10/21 11:08:17;;;;;;;2.10;0.35;;;16.50;99.90;;;;;;5023277;28;20036;-72
2023/10/21 11:10:43;;;;;;;5.90;0.90;;;16.20;99.90;;;;;;5026132;28;20044;-73
2023/10/21 11:13:09;;;;;;;7.90;1.90;;;15.80;99.90;;;;;;5014238;28;20026;-73
2023/10/21 11:15:44;;;;;;;3.70;1.25;;;15.70;99.90;;;;;;5015358;28;20164;-72
2023/10/21 11:18:13;;;;;;;18.70;1.30;;;15.60;99.90;;;;;;5025550;28;20026;-72
2023/10/21 11:20:49;;;;;;;4.60;1.75;;;15.70;99.90;;;;;;5014843;28;20060;-72
2023/10/21 11:23:26;;;;;;;3.83;0.55;;;15.60;99.90;;;;;;5013832;28;20036;-72
2023/10/21 11:25:54;;;;;;;3.40;0.98;;;15.60;99.90;;;;;;5014823;28;20394;-72
2023/10/21 11:28:21;;;;;;;5.35;2.17;;;15.80;99.90;;;;;;5015138;28;20025;-72
2023/10/21 11:30:47;;;;;;;0.98;0.52;;;15.80;99.90;;;;;;5015175;28;20044;-72
2023/10/21 11:33:15;;;;;;;6.55;1.15;;;15.80;99.90;;;;;;5015203;28;20033;-72
2023/10/21 11:35:44;;;;;;;2.72;1.00;;;15.60;99.90;;;;;;5013930;28;20445;-72
2023/10/21 11:38:19;;;;;;;0.45;0.40;;;15.40;99.90;;;;;;5013604;28;20045;-72
2023/10/21 11:40:46;;;;;;;0.10;0.10;;;15.50;99.90;;;;;;5015070;28;20385;-72
2023/10/21 11:43:13;;;;;;;6.15;1.60;;;15.50;99.90;;;;;;5014967;28;20057;-72
2023/10/21 11:45:40;;;;;;;6.10;1.50;;;15.60;99.90;;;;;;5020118;28;20041;-72
2023/10/21 11:48:10;;;;;;;1.60;0.68;;;15.50;99.90;;;;;;5029983;28;20065;-72
2023/10/21 11:50:43;;;;;;;2.92;1.27;;;15.40;99.90;;;;;;5026408;28;20033;-72
2023/10/21 11:53:10;;;;;;;3.03;0.25;;;15.20;99.90;;;;;;5028079;28;20021;-72
2023/10/21 12:28:55;;;;;;;0.00;0.00;;;15.20;99.90;;;;;;5005420;28;20041;-72
2023/10/21 12:41:38;;;;;;;5.97;0.88;;;15.10;99.90;;;;;;5013782;28;20070;-72
2023/10/21 12:44:11;;;;;;;2.65;0.75;;;15.10;99.90;;;;;;5011841;28;20021;-72
2023/10/21 12:46:38;;;;;;;3.38;1.52;;;15.00;99.90;;;;;;5025303;28;20045;-72
2023/10/21 12:49:12;;;;;;;8.15;1.33;;;15.00;99.90;;;;;;5024598;28;20105;-72
2023/10/21 12:51:38;;;;;;;2.30;0.75;;;14.90;99.90;;;;;;5008366;28;20040;-72
2023/10/21 12:54:09;;;;;;;20.92;1.23;;;14.90;99.90;;;;;;5021918;28;20026;-71
2023/10/21 12:56:36;;;;;;;1.70;0.63;;;14.80;99.90;;;;;;5022731;28;20033;-73
2023/10/21 12:59:02;;;;;;;1.27;0.73;;;14.90;99.90;;;;;;5022781;28;20030;-73
2023/10/21 13:01:29;;;;;;;5.30;0.63;;;14.80;99.90;;;;;;5028375;28;20406;-72
2023/10/21 13:03:57;;;;;;;2.33;1.33;;;14.90;99.90;;;;;;5022905;28;20108;-72
2023/10/21 13:06:23;;;;;;;4.25;0.77;;;14.90;99.90;;;;;;5030491;28;20045;-72
2023/10/21 13:08:51;;;;;;;0.43;0.43;;;14.90;99.90;;;;;;5031573;28;20026;-72
2023/10/21 13:11:17;;;;;;;0.17;0.17;;;14.80;99.90;;;;;;5032418;28;20466;-71
2023/10/21 13:13:46;;;;;;;3.78;0.68;;;14.80;99.90;;;;;;5033004;28;20108;-72
2023/10/21 13:16:12;;;;;;;0.70;0.38;;;14.70;99.90;;;;;;5033276;28;20079;-71
2023/10/21 13:18:38;;;;;;;8.23;1.38;;;14.70;99.90;;;;;;5033689;28;20029;-71
2023/10/21 13:21:06;;;;;;;0.63;0.60;;;14.50;99.90;;;;;;5033630;28;20428;-71
2023/10/21 13:23:34;;;;;;;0.60;0.52;;;14.50;99.90;;;;;;5033411;28;20078;-72
2023/10/21 13:26:01;;;;;;;0.40;0.35;;;14.50;99.90;;;;;;5033612;28;20080;-72
2023/10/21 13:28:27;;;;;;;2.00;0.25;;;14.50;99.90;;;;;;5032421;28;20026;-73
2023/10/21 13:30:52;;;;;;;5.18;1.55;;;14.40;99.90;;;;;;5015810;28;20478;-73
2023/10/21 13:33:18;;;;;;;7.03;0.98;;;14.30;99.90;;;;;;5033300;28;20028;-72